sensor_id;sensor_type;location;lat;lon;timestamp;pressure;altitude;pressure_sealevel;temperature;humidity
17060;BME280;8646;49.716;9.266;2023-02-07T00:01:17;102456.19;;;2.43;81.80
17060;BME280;8646;49.716;9.266;2023-02-07T00:04:23;102446.00;;;2.28;82.15
17060;BME280;8646;49.716;9.266;2023-02-07T00:07:26;102449.66;;;2.32;82.12
17060;BME280;8646;49.716;9.266;2023-02-07T00:10:29;102440.75;;;2.32;82.39
17060;BME280;8646;49.716;9.266;2023-02-07T00:13:33;102433.91;;;2.44;82.19
17060;BME280;8646;49.716;9.266;2023-02-07T00:16:40;102447.44;;;2.50;82.30
17060;BME280;8646;49.716;9.266;2023-02-07T00:19:43;102443.00;;;2.52;82.61
17060;BME280;8646;49.716;9.266;2023-02-07T00:22:46;102437.66;;;2.51;82.62
17060;BME280;8646;49.716;9.266;2023-02-07T00:25:49;102448.72;;;2.66;81.98
17060;BME280;8646;49.716;9.266;2023-02-07T00:28:54;102447.94;;;2.72;81.51
17060;BME280;8646;49.716;9.266;2023-02-07T00:32:01;102448.00;;;2.75;80.55
17060;BME280;8646;49.716;9.266;2023-02-07T00:35:07;102458.41;;;2.62;81.30
17060;BME280;8646;49.716;9.266;2023-02-07T00:38:10;102465.56;;;2.63;81.53
17060;BME280;8646;49.716;9.266;2023-02-07T00:41:17;102475.66;;;2.75;80.24
17060;BME280;8646;49.716;9.266;2023-02-07T00:44:20;102464.06;;;2.75;79.61
17060;BME280;8646;49.716;9.266;2023-02-07T00:47:24;102463.91;;;2.68;79.55
17060;BME280;8646;49.716;9.266;2023-02-07T00:50:29;102458.19;;;2.53;79.78
17060;BME280;8646;49.716;9.266;2023-02-07T00:53:40;102460.69;;;2.46;79.63
17060;BME280;8646;49.716;9.266;2023-02-07T00:56:44;102452.72;;;2.47;78.29
17060;BME280;8646;49.716;9.266;2023-02-07T00:59:47;102449.34;;;2.18;79.21
17060;BME280;8646;49.716;9.266;2023-02-07T01:02:51;102462.31;;;2.05;79.57
17060;BME280;8646;49.716;9.266;2023-02-07T01:05:57;102448.09;;;2.06;77.46
17060;BME280;8646;49.716;9.266;2023-02-07T01:09:02;102459.00;;;1.80;76.48
17060;BME280;8646;49.716;9.266;2023-02-07T01:12:06;102458.84;;;1.74;75.67
17060;BME280;8646;49.716;9.266;2023-02-07T01:15:16;102454.13;;;1.64;75.11
17060;BME280;8646;49.716;9.266;2023-02-07T01:18:20;102468.00;;;1.51;75.54
17060;BME280;8646;49.716;9.266;2023-02-07T01:21:25;102461.63;;;1.46;75.11
17060;BME280;8646;49.716;9.266;2023-02-07T01:24:28;102457.91;;;1.72;71.33
17060;BME280;8646;49.716;9.266;2023-02-07T01:27:31;102456.16;;;1.41;73.09
17060;BME280;8646;49.716;9.266;2023-02-07T01:30:34;102460.03;;;1.23;74.29
17060;BME280;8646;49.716;9.266;2023-02-07T01:33:41;102459.47;;;1.33;72.97
17060;BME280;8646;49.716;9.266;2023-02-07T01:36:44;102459.88;;;1.17;72.91
17060;BME280;8646;49.716;9.266;2023-02-07T01:39:48;102473.63;;;1.00;73.84
17060;BME280;8646;49.716;9.266;2023-02-07T01:42:51;102480.25;;;1.14;72.66
17060;BME280;8646;49.716;9.266;2023-02-07T01:45:53;102481.59;;;1.00;73.65
17060;BME280;8646;49.716;9.266;2023-02-07T01:49:09;102487.34;;;0.84;74.41
17060;BME280;8646;49.716;9.266;2023-02-07T01:52:16;102482.91;;;0.85;74.43
17060;BME280;8646;49.716;9.266;2023-02-07T01:55:24;102484.38;;;0.75;74.69
17060;BME280;8646;49.716;9.266;2023-02-07T01:58:28;102493.09;;;0.69;74.93
17060;BME280;8646;49.716;9.266;2023-02-07T02:01:34;102492.97;;;0.66;75.08
17060;BME280;8646;49.716;9.266;2023-02-07T02:04:41;102481.53;;;0.97;72.38
17060;BME280;8646;49.716;9.266;2023-02-07T02:07:44;102492.28;;;0.72;73.37
17060;BME280;8646;49.716;9.266;2023-02-07T02:10:58;102491.38;;;0.71;73.23
17060;BME280;8646;49.716;9.266;2023-02-07T02:14:08;102484.91;;;0.63;73.62
17060;BME280;8646;49.716;9.266;2023-02-07T02:17:25;102489.22;;;0.60;73.75
17060;BME280;8646;49.716;9.266;2023-02-07T02:28:24;102479.22;;;0.53;73.31
17060;BME280;8646;49.716;9.266;2023-02-07T02:35:11;102485.16;;;0.44;73.45
17060;BME280;8646;49.716;9.266;2023-02-07T02:38:24;102491.00;;;0.32;74.50
17060;BME280;8646;49.716;9.266;2023-02-07T02:41:31;102489.72;;;0.21;74.90
17060;BME280;8646;49.716;9.266;2023-02-07T02:44:43;102495.72;;;0.14;75.43
17060;BME280;8646;49.716;9.266;2023-02-07T02:47:49;102489.31;;;0.09;75.75
17060;BME280;8646;49.716;9.266;2023-02-07T02:50:54;102484.16;;;0.14;75.74
17060;BME280;8646;49.716;9.266;2023-02-07T02:53:58;102483.63;;;0.25;75.33
17060;BME280;8646;49.716;9.266;2023-02-07T02:57:18;102496.69;;;0.18;75.40
17060;BME280;8646;49.716;9.266;2023-02-07T03:00:35;102480.97;;;0.25;75.45
17060;BME280;8646;49.716;9.266;2023-02-07T03:04:10;102484.22;;;0.15;75.62
17060;BME280;8646;49.716;9.266;2023-02-07T03:07:32;102473.34;;;0.36;74.30
17060;BME280;8646;49.716;9.266;2023-02-07T03:10:47;102481.84;;;0.24;74.89
17060;BME280;8646;49.716;9.266;2023-02-07T03:13:59;102478.47;;;0.30;74.48
17060;BME280;8646;49.716;9.266;2023-02-07T03:17:13;102470.91;;;0.15;75.35
17060;BME280;8646;49.716;9.266;2023-02-07T03:20:18;102485.59;;;0.04;75.77
17060;BME280;8646;49.716;9.266;2023-02-07T03:23:23;102464.16;;;0.26;75.17
17060;BME280;8646;49.716;9.266;2023-02-07T03:26:27;102470.59;;;0.06;75.84
17060;BME280;8646;49.716;9.266;2023-02-07T03:29:31;102463.31;;;0.02;76.16
17060;BME280;8646;49.716;9.266;2023-02-07T03:32:41;102466.31;;;-0.14;76.20
17060;BME280;8646;49.716;9.266;2023-02-07T03:35:48;102481.38;;;-0.15;76.66
17060;BME280;8646;49.716;9.266;2023-02-07T03:38:57;102481.09;;;-0.22;76.91
17060;BME280;8646;49.716;9.266;2023-02-07T03:42:03;102492.50;;;-0.26;77.02
17060;BME280;8646;49.716;9.266;2023-02-07T03:45:11;102496.03;;;-0.27;77.43
17060;BME280;8646;49.716;9.266;2023-02-07T03:48:15;102483.56;;;-0.28;77.68
17060;BME280;8646;49.716;9.266;2023-02-07T03:51:25;102484.19;;;-0.35;77.76
17060;BME280;8646;49.716;9.266;2023-02-07T03:54:29;102477.97;;;-0.36;77.67
17060;BME280;8646;49.716;9.266;2023-02-07T03:57:36;102485.69;;;-0.44;78.02
17060;BME280;8646;49.716;9.266;2023-02-07T04:00:38;102478.41;;;-0.48;78.39
17060;BME280;8646;49.716;9.266;2023-02-07T04:03:41;102480.50;;;-0.39;78.04
17060;BME280;8646;49.716;9.266;2023-02-07T04:06:52;102475.75;;;-0.48;78.32
17060;BME280;8646;49.716;9.266;2023-02-07T04:09:56;102470.69;;;-0.42;77.85
17060;BME280;8646;49.716;9.266;2023-02-07T04:12:58;102473.22;;;-0.45;78.20
17060;BME280;8646;49.716;9.266;2023-02-07T04:16:11;102472.16;;;-0.50;78.13
17060;BME280;8646;49.716;9.266;2023-02-07T04:19:15;102471.13;;;-0.53;78.38
17060;BME280;8646;49.716;9.266;2023-02-07T04:22:18;102486.09;;;-0.57;78.66
17060;BME280;8646;49.716;9.266;2023-02-07T04:25:22;102480.22;;;-0.47;77.92
17060;BME280;8646;49.716;9.266;2023-02-07T04:28:26;102480.78;;;-0.57;78.39
17060;BME280;8646;49.716;9.266;2023-02-07T04:31:29;102466.28;;;-0.65;78.61
17060;BME280;8646;49.716;9.266;2023-02-07T04:34:34;102466.38;;;-0.62;78.84
17060;BME280;8646;49.716;9.266;2023-02-07T04:37:37;102473.25;;;-0.68;78.94
17060;BME280;8646;49.716;9.266;2023-02-07T04:40:43;102467.34;;;-0.60;78.30
17060;BME280;8646;49.716;9.266;2023-02-07T04:43:46;102469.53;;;-0.72;78.80
17060;BME280;8646;49.716;9.266;2023-02-07T04:46:51;102470.72;;;-0.64;78.37
17060;BME280;8646;49.716;9.266;2023-02-07T04:49:53;102473.81;;;-0.77;78.67
17060;BME280;8646;49.716;9.266;2023-02-07T04:52:56;102474.28;;;-0.65;78.46
17060;BME280;8646;49.716;9.266;2023-02-07T04:56:25;102475.44;;;-0.81;78.59
17060;BME280;8646;49.716;9.266;2023-02-07T04:59:28;102464.69;;;-0.84;78.78
17060;BME280;8646;49.716;9.266;2023-02-07T05:02:31;102473.28;;;-0.91;78.84
17060;BME280;8646;49.716;9.266;2023-02-07T05:05:37;102476.66;;;-0.95;79.43
17060;BME280;8646;49.716;9.266;2023-02-07T05:08:40;102474.56;;;-0.81;78.60
17060;BME280;8646;49.716;9.266;2023-02-07T05:11:44;102476.56;;;-0.98;79.17
17060;BME280;8646;49.716;9.266;2023-02-07T05:14:47;102484.94;;;-0.87;79.10
17060;BME280;8646;49.716;9.266;2023-02-07T05:17:52;102490.81;;;-0.96;79.09
17060;BME280;8646;49.716;9.266;2023-02-07T05:20:55;102461.72;;;-1.15;79.34
17060;BME280;8646;49.716;9.266;2023-02-07T05:23:57;102492.69;;;-0.93;79.06
17060;BME280;8646;49.716;9.266;2023-02-07T05:27:02;102501.56;;;-0.93;79.10
17060;BME280;8646;49.716;9.266;2023-02-07T05:30:06;102506.72;;;-0.97;78.90
17060;BME280;8646;49.716;9.266;2023-02-07T05:33:09;102506.06;;;-1.14;79.71
17060;BME280;8646;49.716;9.266;2023-02-07T05:36:15;102498.09;;;-1.14;79.65
17060;BME280;8646;49.716;9.266;2023-02-07T05:39:18;102502.97;;;-1.25;80.18
17060;BME280;8646;49.716;9.266;2023-02-07T05:42:25;102518.47;;;-1.13;79.84
17060;BME280;8646;49.716;9.266;2023-02-07T05:45:28;102518.75;;;-1.07;79.49
17060;BME280;8646;49.716;9.266;2023-02-07T05:48:33;102516.00;;;-1.08;79.45
17060;BME280;8646;49.716;9.266;2023-02-07T05:51:35;102524.41;;;-1.20;80.02
17060;BME280;8646;49.716;9.266;2023-02-07T05:54:40;102524.59;;;-1.16;79.97
17060;BME280;8646;49.716;9.266;2023-02-07T05:57:45;102524.94;;;-1.29;80.41
17060;BME280;8646;49.716;9.266;2023-02-07T06:00:47;102524.22;;;-1.25;80.20
17060;BME280;8646;49.716;9.266;2023-02-07T06:03:50;102530.00;;;-1.35;80.74
17060;BME280;8646;49.716;9.266;2023-02-07T06:06:53;102521.88;;;-1.17;80.06
17060;BME280;8646;49.716;9.266;2023-02-07T06:09:56;102512.94;;;-1.19;80.13
17060;BME280;8646;49.716;9.266;2023-02-07T06:13:03;102517.88;;;-1.28;80.32
17060;BME280;8646;49.716;9.266;2023-02-07T06:16:06;102511.31;;;-1.38;80.88
17060;BME280;8646;49.716;9.266;2023-02-07T06:19:10;102512.84;;;-1.43;80.98
17060;BME280;8646;49.716;9.266;2023-02-07T06:22:16;102519.44;;;-1.33;80.76
17060;BME280;8646;49.716;9.266;2023-02-07T06:25:26;102516.63;;;-1.38;80.43
17060;BME280;8646;49.716;9.266;2023-02-07T06:28:30;102516.94;;;-1.30;80.24
17060;BME280;8646;49.716;9.266;2023-02-07T06:31:33;102539.25;;;-1.25;80.24
17060;BME280;8646;49.716;9.266;2023-02-07T06:34:36;102548.84;;;-1.29;80.10
17060;BME280;8646;49.716;9.266;2023-02-07T06:37:38;102545.88;;;-1.36;80.42
17060;BME280;8646;49.716;9.266;2023-02-07T06:40:42;102554.66;;;-1.39;80.56
17060;BME280;8646;49.716;9.266;2023-02-07T06:43:49;102556.63;;;-1.33;80.67
17060;BME280;8646;49.716;9.266;2023-02-07T06:46:52;102567.53;;;-1.48;81.10
17060;BME280;8646;49.716;9.266;2023-02-07T06:49:55;102575.81;;;-1.61;81.85
17060;BME280;8646;49.716;9.266;2023-02-07T06:52:57;102582.03;;;-1.61;81.66
17060;BME280;8646;49.716;9.266;2023-02-07T06:56:02;102591.78;;;-1.40;81.34
17060;BME280;8646;49.716;9.266;2023-02-07T06:59:09;102583.78;;;-1.61;81.98
17060;BME280;8646;49.716;9.266;2023-02-07T07:02:12;102585.34;;;-1.66;81.84
17060;BME280;8646;49.716;9.266;2023-02-07T07:05:21;102602.53;;;-1.58;81.95
17060;BME280;8646;49.716;9.266;2023-02-07T07:08:27;102600.31;;;-1.47;81.62
17060;BME280;8646;49.716;9.266;2023-02-07T07:11:30;102617.16;;;-1.47;81.69
17060;BME280;8646;49.716;9.266;2023-02-07T07:14:52;102612.78;;;-1.46;81.56
17060;BME280;8646;49.716;9.266;2023-02-07T07:17:58;102615.22;;;-1.51;81.66
17060;BME280;8646;49.716;9.266;2023-02-07T07:21:01;102617.88;;;-1.51;81.82
17060;BME280;8646;49.716;9.266;2023-02-07T07:24:05;102625.16;;;-1.47;81.76
17060;BME280;8646;49.716;9.266;2023-02-07T07:27:08;102625.19;;;-1.45;81.56
17060;BME280;8646;49.716;9.266;2023-02-07T07:30:13;102585.69;;;-1.59;81.45
17060;BME280;8646;49.716;9.266;2023-02-07T07:33:16;102619.09;;;-1.43;81.78
17060;BME280;8646;49.716;9.266;2023-02-07T07:36:19;102609.25;;;-1.45;81.71
17060;BME280;8646;49.716;9.266;2023-02-07T07:39:21;102627.38;;;-1.35;81.67
17060;BME280;8646;49.716;9.266;2023-02-07T07:42:24;102633.03;;;-1.28;81.24
17060;BME280;8646;49.716;9.266;2023-02-07T07:45:29;102633.88;;;-1.29;81.34
17060;BME280;8646;49.716;9.266;2023-02-07T07:48:32;102634.78;;;-1.28;80.97
17060;BME280;8646;49.716;9.266;2023-02-07T07:51:35;102639.31;;;-1.26;81.04
17060;BME280;8646;49.716;9.266;2023-02-07T07:54:37;102635.38;;;-1.14;80.29
17060;BME280;8646;49.716;9.266;2023-02-07T07:57:40;102636.22;;;-1.16;80.25
17060;BME280;8646;49.716;9.266;2023-02-07T08:00:44;102640.03;;;-1.09;80.03
17060;BME280;8646;49.716;9.266;2023-02-07T08:03:48;102638.81;;;-0.95;79.04
17060;BME280;8646;49.716;9.266;2023-02-07T08:06:52;102638.75;;;-0.96;78.71
17060;BME280;8646;49.716;9.266;2023-02-07T08:09:54;102639.50;;;-1.00;78.91
17060;BME280;8646;49.716;9.266;2023-02-07T08:12:57;102634.47;;;-0.93;78.03
17060;BME280;8646;49.716;9.266;2023-02-07T08:16:03;102620.44;;;-0.89;77.55
17060;BME280;8646;49.716;9.266;2023-02-07T08:19:09;102619.88;;;-0.59;76.00
17060;BME280;8646;49.716;9.266;2023-02-07T08:22:15;102627.78;;;-0.61;76.05
17060;BME280;8646;49.716;9.266;2023-02-07T08:25:18;102626.09;;;-0.81;77.32
17060;BME280;8646;49.716;9.266;2023-02-07T08:28:25;102620.22;;;-0.72;77.13
17060;BME280;8646;49.716;9.266;2023-02-07T08:31:32;102619.13;;;-0.78;77.49
17060;BME280;8646;49.716;9.266;2023-02-07T08:34:35;102613.03;;;-0.75;77.51
17060;BME280;8646;49.716;9.266;2023-02-07T08:37:43;102603.97;;;-0.80;77.59
17060;BME280;8646;49.716;9.266;2023-02-07T08:40:52;102620.53;;;-0.65;77.60
17060;BME280;8646;49.716;9.266;2023-02-07T08:43:57;102620.66;;;-0.62;77.65
17060;BME280;8646;49.716;9.266;2023-02-07T08:47:06;102611.16;;;-0.55;77.76
17060;BME280;8646;49.716;9.266;2023-02-07T08:50:09;102623.91;;;-0.47;77.06
17060;BME280;8646;49.716;9.266;2023-02-07T08:53:12;102616.47;;;-0.33;76.48
17060;BME280;8646;49.716;9.266;2023-02-07T08:56:15;102620.13;;;-0.29;76.24
17060;BME280;8646;49.716;9.266;2023-02-07T08:59:18;102626.34;;;-0.29;76.25
17060;BME280;8646;49.716;9.266;2023-02-07T09:02:22;102630.09;;;-0.24;76.25
17060;BME280;8646;49.716;9.266;2023-02-07T09:05:25;102630.44;;;0.09;73.62
17060;BME280;8646;49.716;9.266;2023-02-07T09:08:27;102625.66;;;-0.01;74.27
17060;BME280;8646;49.716;9.266;2023-02-07T09:11:30;102628.94;;;0.17;73.44
17060;BME280;8646;49.716;9.266;2023-02-07T09:14:33;102630.44;;;0.09;74.22
17060;BME280;8646;49.716;9.266;2023-02-07T09:17:37;102621.72;;;0.13;73.96
17060;BME280;8646;49.716;9.266;2023-02-07T09:20:42;102610.97;;;0.35;72.58
17060;BME280;8646;49.716;9.266;2023-02-07T09:23:45;102617.06;;;0.31;73.44
17060;BME280;8646;49.716;9.266;2023-02-07T09:26:50;102612.84;;;0.38;72.77
17060;BME280;8646;49.716;9.266;2023-02-07T09:29:53;102603.03;;;0.37;73.66
17060;BME280;8646;49.716;9.266;2023-02-07T09:32:58;102610.31;;;0.43;73.75
17060;BME280;8646;49.716;9.266;2023-02-07T09:36:03;102612.84;;;0.63;71.93
17060;BME280;8646;49.716;9.266;2023-02-07T09:39:06;102610.47;;;0.72;69.85
17060;BME280;8646;49.716;9.266;2023-02-07T09:42:18;102621.50;;;0.58;71.88
17060;BME280;8646;49.716;9.266;2023-02-07T09:45:28;102614.38;;;0.84;69.66
17060;BME280;8646;49.716;9.266;2023-02-07T09:48:45;102619.97;;;0.91;67.92
17060;BME280;8646;49.716;9.266;2023-02-07T09:51:50;102621.59;;;0.86;68.24
17060;BME280;8646;49.716;9.266;2023-02-07T09:54:55;102623.16;;;0.80;69.73
17060;BME280;8646;49.716;9.266;2023-02-07T09:58:06;102617.13;;;0.85;69.96
17060;BME280;8646;49.716;9.266;2023-02-07T10:01:13;102619.31;;;0.98;68.15
17060;BME280;8646;49.716;9.266;2023-02-07T10:04:27;102621.72;;;0.89;68.88
17060;BME280;8646;49.716;9.266;2023-02-07T10:07:31;102623.53;;;0.92;68.78
17060;BME280;8646;49.716;9.266;2023-02-07T10:10:38;102615.50;;;0.90;69.10
17060;BME280;8646;49.716;9.266;2023-02-07T10:14:07;102612.47;;;1.06;67.87
17060;BME280;8646;49.716;9.266;2023-02-07T10:17:35;102617.59;;;1.00;68.91
17060;BME280;8646;49.716;9.266;2023-02-07T10:20:55;102610.88;;;1.11;67.75
17060;BME280;8646;49.716;9.266;2023-02-07T10:24:27;102616.88;;;1.04;68.44
17060;BME280;8646;49.716;9.266;2023-02-07T10:27:57;102609.31;;;1.18;67.44
17060;BME280;8646;49.716;9.266;2023-02-07T10:31:11;102583.16;;;1.35;65.12
17060;BME280;8646;49.716;9.266;2023-02-07T10:34:33;102596.59;;;1.38;65.24
17060;BME280;8646;49.716;9.266;2023-02-07T10:37:47;102600.91;;;1.34;66.60
17060;BME280;8646;49.716;9.266;2023-02-07T10:40:53;102589.38;;;1.35;67.08
17060;BME280;8646;49.716;9.266;2023-02-07T10:43:57;102593.03;;;1.39;67.11
17060;BME280;8646;49.716;9.266;2023-02-07T10:47:17;102585.53;;;1.54;66.99
17060;BME280;8646;49.716;9.266;2023-02-07T10:50:21;102582.91;;;1.57;66.44
17060;BME280;8646;49.716;9.266;2023-02-07T10:53:47;102567.91;;;1.61;64.61
17060;BME280;8646;49.716;9.266;2023-02-07T10:56:58;102571.78;;;1.72;65.97
17060;BME280;8646;49.716;9.266;2023-02-07T11:00:20;102558.06;;;1.89;64.29
17060;BME280;8646;49.716;9.266;2023-02-07T11:03:24;102569.00;;;1.99;63.50
17060;BME280;8646;49.716;9.266;2023-02-07T11:06:28;102562.00;;;2.04;63.55
17060;BME280;8646;49.716;9.266;2023-02-07T11:09:33;102568.66;;;2.18;62.03
17060;BME280;8646;49.716;9.266;2023-02-07T11:12:44;102557.97;;;2.18;61.82
17060;BME280;8646;49.716;9.266;2023-02-07T11:15:53;102559.22;;;2.32;63.03
17060;BME280;8646;49.716;9.266;2023-02-07T11:18:59;102558.47;;;2.38;61.97
17060;BME280;8646;49.716;9.266;2023-02-07T11:22:13;102550.97;;;2.57;62.07
17060;BME280;8646;49.716;9.266;2023-02-07T11:25:26;102545.81;;;2.65;59.19
17060;BME280;8646;49.716;9.266;2023-02-07T11:28:31;102546.78;;;2.67;60.70
17060;BME280;8646;49.716;9.266;2023-02-07T11:31:35;102528.06;;;2.67;60.91
17060;BME280;8646;49.716;9.266;2023-02-07T11:34:43;102543.69;;;2.88;61.34
17060;BME280;8646;49.716;9.266;2023-02-07T11:37:58;102535.03;;;2.98;58.82
17060;BME280;8646;49.716;9.266;2023-02-07T11:41:19;102530.88;;;3.12;55.87
17060;BME280;8646;49.716;9.266;2023-02-07T11:44:25;102501.63;;;3.20;54.96
17060;BME280;8646;49.716;9.266;2023-02-07T11:47:30;102525.84;;;3.26;55.62
17060;BME280;8646;49.716;9.266;2023-02-07T11:50:35;102515.25;;;3.30;55.51
17060;BME280;8646;49.716;9.266;2023-02-07T11:53:43;102515.28;;;3.33;55.94
17060;BME280;8646;49.716;9.266;2023-02-07T11:56:50;102503.09;;;3.46;56.47
17060;BME280;8646;49.716;9.266;2023-02-07T12:00:02;102499.75;;;3.58;54.77
17060;BME280;8646;49.716;9.266;2023-02-07T12:03:21;102497.16;;;3.62;54.11
17060;BME280;8646;49.716;9.266;2023-02-07T12:06:41;102501.81;;;3.71;56.21
17060;BME280;8646;49.716;9.266;2023-02-07T12:09:46;102490.47;;;3.86;54.78
17060;BME280;8646;49.716;9.266;2023-02-07T12:12:55;102460.81;;;3.75;54.40
17060;BME280;8646;49.716;9.266;2023-02-07T12:16:03;102489.81;;;3.97;53.54
17060;BME280;8646;49.716;9.266;2023-02-07T12:19:18;102487.94;;;3.93;53.80
17060;BME280;8646;49.716;9.266;2023-02-07T12:22:27;102476.03;;;4.26;49.73
17060;BME280;8646;49.716;9.266;2023-02-07T12:25:38;102476.31;;;3.93;50.71
17060;BME280;8646;49.716;9.266;2023-02-07T12:28:52;102470.47;;;4.13;49.05
17060;BME280;8646;49.716;9.266;2023-02-07T12:32:29;102471.31;;;4.11;49.05
17060;BME280;8646;49.716;9.266;2023-02-07T12:35:39;102481.94;;;4.06;50.47
17060;BME280;8646;49.716;9.266;2023-02-07T12:39:02;102476.69;;;4.14;51.36
17060;BME280;8646;49.716;9.266;2023-02-07T12:42:20;102481.44;;;4.29;51.13
17060;BME280;8646;49.716;9.266;2023-02-07T12:45:55;102473.56;;;4.38;51.76
17060;BME280;8646;49.716;9.266;2023-02-07T12:49:18;102478.09;;;4.42;50.98
17060;BME280;8646;49.716;9.266;2023-02-07T12:52:36;102462.19;;;4.52;48.56
17060;BME280;8646;49.716;9.266;2023-02-07T12:55:56;102470.91;;;4.41;49.89
17060;BME280;8646;49.716;9.266;2023-02-07T12:59:12;102457.78;;;4.57;49.45
17060;BME280;8646;49.716;9.266;2023-02-07T13:02:36;102458.75;;;4.61;48.53
17060;BME280;8646;49.716;9.266;2023-02-07T13:06:03;102455.22;;;4.65;47.84
17060;BME280;8646;49.716;9.266;2023-02-07T13:09:14;102435.41;;;4.57;47.49
17060;BME280;8646;49.716;9.266;2023-02-07T13:12:21;102465.00;;;4.62;48.58
17060;BME280;8646;49.716;9.266;2023-02-07T13:15:33;102458.81;;;4.67;48.69
17060;BME280;8646;49.716;9.266;2023-02-07T13:18:44;102444.53;;;4.68;49.25
17060;BME280;8646;49.716;9.266;2023-02-07T13:21:53;102458.91;;;4.73;48.16
17060;BME280;8646;49.716;9.266;2023-02-07T13:24:58;102450.72;;;4.64;49.70
17060;BME280;8646;49.716;9.266;2023-02-07T13:28:05;102443.59;;;4.66;49.40
17060;BME280;8646;49.716;9.266;2023-02-07T13:31:15;102444.47;;;4.65;49.86
17060;BME280;8646;49.716;9.266;2023-02-07T13:34:25;102441.66;;;4.56;49.68
17060;BME280;8646;49.716;9.266;2023-02-07T13:37:36;102445.13;;;4.49;49.11
17060;BME280;8646;49.716;9.266;2023-02-07T13:40:52;102451.28;;;4.42;48.96
17060;BME280;8646;49.716;9.266;2023-02-07T13:44:01;102440.47;;;4.36;48.52
17060;BME280;8646;49.716;9.266;2023-02-07T13:47:32;102449.47;;;4.41;48.27
17060;BME280;8646;49.716;9.266;2023-02-07T13:50:49;102394.41;;;4.07;49.48
17060;BME280;8646;49.716;9.266;2023-02-07T13:54:15;102454.66;;;4.30;48.77
17060;BME280;8646;49.716;9.266;2023-02-07T13:57:38;102452.06;;;4.35;49.46
17060;BME280;8646;49.716;9.266;2023-02-07T14:01:08;102451.34;;;4.45;48.94
17060;BME280;8646;49.716;9.266;2023-02-07T14:04:18;102455.78;;;4.44;48.54
17060;BME280;8646;49.716;9.266;2023-02-07T14:07:24;102456.63;;;4.42;48.28
17060;BME280;8646;49.716;9.266;2023-02-07T14:10:54;102456.44;;;4.30;48.53
17060;BME280;8646;49.716;9.266;2023-02-07T14:14:23;102456.47;;;4.33;50.27
17060;BME280;8646;49.716;9.266;2023-02-07T14:17:55;102448.41;;;4.31;49.35
17060;BME280;8646;49.716;9.266;2023-02-07T14:20:59;102442.22;;;4.34;48.95
17060;BME280;8646;49.716;9.266;2023-02-07T14:24:17;102460.91;;;4.31;49.21
17060;BME280;8646;49.716;9.266;2023-02-07T14:27:29;102458.13;;;4.25;49.75
17060;BME280;8646;49.716;9.266;2023-02-07T14:30:35;102454.63;;;4.27;49.05
17060;BME280;8646;49.716;9.266;2023-02-07T14:33:39;102467.00;;;4.20;49.38
17060;BME280;8646;49.716;9.266;2023-02-07T14:36:41;102455.44;;;4.25;47.92
17060;BME280;8646;49.716;9.266;2023-02-07T14:39:47;102451.75;;;4.16;48.42
17060;BME280;8646;49.716;9.266;2023-02-07T14:42:55;102451.94;;;4.27;47.35
17060;BME280;8646;49.716;9.266;2023-02-07T14:46:06;102453.47;;;4.14;47.84
17060;BME280;8646;49.716;9.266;2023-02-07T14:49:14;102446.25;;;4.09;47.86
17060;BME280;8646;49.716;9.266;2023-02-07T14:52:21;102441.59;;;3.97;48.76
17060;BME280;8646;49.716;9.266;2023-02-07T14:55:29;102439.78;;;3.98;48.42
17060;BME280;8646;49.716;9.266;2023-02-07T14:58:39;102443.28;;;3.92;49.50
17060;BME280;8646;49.716;9.266;2023-02-07T15:01:43;102446.78;;;3.88;49.69
17060;BME280;8646;49.716;9.266;2023-02-07T15:04:49;102454.78;;;3.87;50.19
17060;BME280;8646;49.716;9.266;2023-02-07T15:08:06;102450.16;;;3.78;50.22
17060;BME280;8646;49.716;9.266;2023-02-07T15:11:11;102455.53;;;3.78;50.89
17060;BME280;8646;49.716;9.266;2023-02-07T15:14:20;102453.63;;;3.74;51.35
17060;BME280;8646;49.716;9.266;2023-02-07T15:17:25;102454.38;;;3.65;51.75
17060;BME280;8646;49.716;9.266;2023-02-07T15:20:47;102449.84;;;3.61;51.60
17060;BME280;8646;49.716;9.266;2023-02-07T15:23:55;102433.59;;;3.52;51.16
17060;BME280;8646;49.716;9.266;2023-02-07T15:27:02;102446.03;;;3.49;51.74
17060;BME280;8646;49.716;9.266;2023-02-07T15:30:06;102453.13;;;3.47;52.07
17060;BME280;8646;49.716;9.266;2023-02-07T15:33:16;102455.69;;;3.42;52.47
17060;BME280;8646;49.716;9.266;2023-02-07T15:36:29;102459.13;;;3.35;52.47
17060;BME280;8646;49.716;9.266;2023-02-07T15:39:33;102450.16;;;3.33;52.86
17060;BME280;8646;49.716;9.266;2023-02-07T15:42:37;102462.50;;;3.26;53.35
17060;BME280;8646;49.716;9.266;2023-02-07T15:46:02;102462.38;;;3.20;53.42
17060;BME280;8646;49.716;9.266;2023-02-07T15:49:06;102462.50;;;3.26;52.75
17060;BME280;8646;49.716;9.266;2023-02-07T15:52:14;102449.69;;;3.10;52.98
17060;BME280;8646;49.716;9.266;2023-02-07T15:55:23;102462.16;;;3.10;53.29
17060;BME280;8646;49.716;9.266;2023-02-07T15:58:32;102473.53;;;3.01;53.39
17060;BME280;8646;49.716;9.266;2023-02-07T16:01:35;102475.19;;;2.94;53.73
17060;BME280;8646;49.716;9.266;2023-02-07T16:04:39;102478.66;;;2.89;53.81
17060;BME280;8646;49.716;9.266;2023-02-07T16:07:44;102487.41;;;2.82;54.37
17060;BME280;8646;49.716;9.266;2023-02-07T16:10:48;102480.84;;;2.69;55.12
17060;BME280;8646;49.716;9.266;2023-02-07T16:13:53;102492.22;;;2.60;55.02
17060;BME280;8646;49.716;9.266;2023-02-07T16:16:58;102496.47;;;2.51;55.75
17060;BME280;8646;49.716;9.266;2023-02-07T16:20:01;102503.59;;;2.52;55.78
17060;BME280;8646;49.716;9.266;2023-02-07T16:23:06;102496.41;;;2.49;55.00
17060;BME280;8646;49.716;9.266;2023-02-07T16:26:10;102493.53;;;2.40;55.40
17060;BME280;8646;49.716;9.266;2023-02-07T16:29:18;102502.31;;;2.36;55.63
17060;BME280;8646;49.716;9.266;2023-02-07T16:32:31;102497.81;;;2.34;55.58
17060;BME280;8646;49.716;9.266;2023-02-07T16:35:34;102501.91;;;2.21;56.16
17060;BME280;8646;49.716;9.266;2023-02-07T16:38:36;102506.16;;;2.13;56.62
17060;BME280;8646;49.716;9.266;2023-02-07T16:41:43;102504.34;;;2.10;56.17
17060;BME280;8646;49.716;9.266;2023-02-07T16:44:48;102507.56;;;1.99;55.86
17060;BME280;8646;49.716;9.266;2023-02-07T16:47:50;102505.00;;;2.02;55.25
17060;BME280;8646;49.716;9.266;2023-02-07T16:50:53;102513.47;;;1.87;55.69
17060;BME280;8646;49.716;9.266;2023-02-07T16:53:56;102508.81;;;1.80;56.95
17060;BME280;8646;49.716;9.266;2023-02-07T16:56:59;102506.94;;;1.76;57.86